Snoqualmie River: South Fork station

back to: Snoqualmie river
South Fork station Summary - (NOAA Hydrograph: GARW1)
Latest reading:
Wed06/19 04:15 pm 10.38 ft 117 cfs (steady)
Past 24hr max:
Tue06/18 05:45 pm 10.39 ft 119 cfs
Forecasted crests: (published Wed 06/19/19 07:58 am)
Wed06/19 11:00 pm 10.45 ft 132 cfs
Tue06/25 05:00 pm 10.14 ft 72 cfs
Wed06/26 05:00 pm 10.13 ft 71 cfs
Thu06/27 05:00 pm 10.12 ft 69 cfs
Fri06/28 05:00 pm 10.1 ft 66 cfs

South Fork station Details

Latest Readings

Last 100 Readings:
Wed06/19 04:15 pm 10.38 ft 117 cfs
Wed06/19 04:00 pm 10.38 ft 117 cfs
Wed06/19 03:45 pm 10.38 ft 117 cfs
Wed06/19 03:30 pm 10.38 ft 117 cfs
Wed06/19 03:15 pm 10.38 ft 117 cfs
Wed06/19 03:00 pm 10.38 ft 117 cfs
Wed06/19 02:45 pm 10.38 ft 117 cfs
Wed06/19 02:30 pm 10.38 ft 117 cfs
Wed06/19 02:15 pm 10.38 ft 117 cfs
Wed06/19 02:00 pm 10.38 ft 117 cfs
Wed06/19 01:45 pm 10.38 ft 117 cfs
Wed06/19 01:30 pm 10.38 ft 117 cfs
Wed06/19 01:15 pm 10.38 ft 117 cfs
Wed06/19 01:00 pm 10.38 ft 117 cfs
Wed06/19 12:45 pm 10.38 ft 117 cfs
Wed06/19 12:30 pm 10.38 ft 117 cfs
Wed06/19 12:15 pm 10.38 ft 117 cfs
Wed06/19 12:00 pm 10.38 ft 117 cfs
Wed06/19 11:45 am 10.38 ft 117 cfs
Wed06/19 11:30 am 10.38 ft 117 cfs
Wed06/19 11:15 am 10.38 ft 117 cfs
Wed06/19 11:00 am 10.38 ft 117 cfs
Wed06/19 10:45 am 10.38 ft 117 cfs
Wed06/19 10:30 am 10.38 ft 117 cfs
Wed06/19 10:15 am 10.38 ft 117 cfs
Wed06/19 10:00 am 10.38 ft 117 cfs
Wed06/19 09:45 am 10.38 ft 117 cfs
Wed06/19 09:30 am 10.38 ft 117 cfs
Wed06/19 09:15 am 10.39 ft 119 cfs
Wed06/19 09:00 am 10.38 ft 117 cfs
Wed06/19 08:45 am 10.39 ft 119 cfs
Wed06/19 08:30 am 10.38 ft 117 cfs
Wed06/19 08:15 am 10.38 ft 117 cfs
Wed06/19 08:00 am 10.39 ft 119 cfs
Wed06/19 07:45 am 10.39 ft 119 cfs
Wed06/19 07:30 am 10.39 ft 119 cfs
Wed06/19 07:15 am 10.39 ft 119 cfs
Wed06/19 07:00 am 10.39 ft 119 cfs
Wed06/19 06:45 am 10.39 ft 119 cfs
Wed06/19 06:30 am 10.39 ft 119 cfs
Wed06/19 06:15 am 10.39 ft 119 cfs
Wed06/19 06:00 am 10.39 ft 119 cfs
Wed06/19 05:45 am 10.39 ft 119 cfs
Wed06/19 05:30 am 10.39 ft 119 cfs
Wed06/19 05:15 am 10.39 ft 119 cfs
Wed06/19 05:00 am 10.39 ft 119 cfs
Wed06/19 04:45 am 10.38 ft 117 cfs
Wed06/19 04:30 am 10.39 ft 119 cfs
Wed06/19 04:15 am 10.38 ft 117 cfs
Wed06/19 04:00 am 10.39 ft 119 cfs
Wed06/19 03:45 am 10.39 ft 119 cfs
Wed06/19 03:30 am 10.39 ft 119 cfs
Wed06/19 03:15 am 10.39 ft 119 cfs
Wed06/19 03:00 am 10.39 ft 119 cfs
Wed06/19 02:45 am 10.39 ft 119 cfs
Wed06/19 02:30 am 10.39 ft 119 cfs
Wed06/19 02:15 am 10.38 ft 117 cfs
Wed06/19 02:00 am 10.39 ft 119 cfs
Wed06/19 01:45 am 10.39 ft 119 cfs
Wed06/19 01:30 am 10.38 ft 117 cfs
Wed06/19 01:15 am 10.38 ft 117 cfs
Wed06/19 01:00 am 10.38 ft 117 cfs
Wed06/19 12:45 am 10.38 ft 117 cfs
Wed06/19 12:30 am 10.38 ft 117 cfs
Wed06/19 12:15 am 10.38 ft 117 cfs
Wed06/19 12:00 am 10.38 ft 117 cfs
Tue06/18 11:45 pm 10.38 ft 117 cfs
Tue06/18 11:30 pm 10.38 ft 117 cfs
Tue06/18 11:15 pm 10.38 ft 117 cfs
Tue06/18 11:00 pm 10.38 ft 117 cfs
Tue06/18 10:45 pm 10.38 ft 117 cfs
Tue06/18 10:30 pm 10.38 ft 117 cfs
Tue06/18 10:15 pm 10.37 ft 115 cfs
Tue06/18 10:00 pm 10.38 ft 117 cfs
Tue06/18 09:45 pm 10.38 ft 117 cfs
Tue06/18 09:30 pm 10.38 ft 117 cfs
Tue06/18 09:15 pm 10.38 ft 117 cfs
Tue06/18 09:00 pm 10.38 ft 117 cfs
Tue06/18 08:45 pm 10.38 ft 117 cfs
Tue06/18 08:30 pm 10.38 ft 117 cfs
Tue06/18 08:15 pm 10.38 ft 117 cfs
Tue06/18 08:00 pm 10.38 ft 117 cfs
Tue06/18 07:45 pm 10.38 ft 117 cfs
Tue06/18 07:30 pm 10.38 ft 117 cfs
Tue06/18 07:15 pm 10.38 ft 117 cfs
Tue06/18 07:00 pm 10.38 ft 117 cfs
Tue06/18 06:45 pm 10.38 ft 117 cfs
Tue06/18 06:30 pm 10.38 ft 117 cfs
Tue06/18 06:15 pm 10.38 ft 117 cfs
Tue06/18 06:00 pm 10.38 ft 117 cfs
Tue06/18 05:45 pm 10.39 ft 119 cfs
Tue06/18 05:30 pm 10.38 ft 117 cfs
Tue06/18 05:15 pm 10.38 ft 117 cfs
Tue06/18 05:00 pm 10.38 ft 117 cfs
Tue06/18 04:45 pm 10.34 ft 109 cfs
Tue06/18 04:30 pm 10.38 ft 117 cfs
Tue06/18 04:15 pm 10.38 ft 117 cfs
Tue06/18 04:00 pm 10.38 ft 117 cfs
Tue06/18 03:45 pm 10.39 ft 119 cfs
Tue06/18 03:30 pm 10.39 ft 119 cfs

Latest Forecasts

Currently Forecasted Readings:
Wed06/19 11:00 am 10.38 ft 116 cfs
Wed06/19 05:00 pm 10.38 ft 117 cfs
Wed06/19 11:00 pm 10.45 ft 132 cfs
Thu06/20 05:00 am 10.42 ft 126 cfs
Thu06/20 11:00 am 10.38 ft 116 cfs
Thu06/20 05:00 pm 10.34 ft 109 cfs
Thu06/20 11:00 pm 10.31 ft 102 cfs
Fri06/21 05:00 am 10.29 ft 99 cfs
Fri06/21 11:00 am 10.27 ft 95 cfs
Fri06/21 05:00 pm 10.26 ft 93 cfs
Fri06/21 11:00 pm 10.24 ft 90 cfs
Sat06/22 05:00 am 10.23 ft 88 cfs
Sat06/22 11:00 am 10.22 ft 86 cfs
Sat06/22 05:00 pm 10.21 ft 84 cfs
Sat06/22 11:00 pm 10.2 ft 82 cfs
Sun06/23 05:00 am 10.18 ft 80 cfs
Sun06/23 11:00 am 10.17 ft 77 cfs
Sun06/23 05:00 pm 10.16 ft 75 cfs
Sun06/23 11:00 pm 10.15 ft 73 cfs
Mon06/24 05:00 am 10.13 ft 71 cfs
Mon06/24 11:00 am 10.12 ft 69 cfs
Mon06/24 05:00 pm 10.11 ft 67 cfs
Mon06/24 11:00 pm 10.11 ft 67 cfs
Tue06/25 05:00 am 10.1 ft 66 cfs
Tue06/25 11:00 am 10.1 ft 66 cfs
Tue06/25 05:00 pm 10.14 ft 72 cfs
Tue06/25 11:00 pm 10.12 ft 70 cfs
Wed06/26 05:00 am 10.11 ft 68 cfs
Wed06/26 11:00 am 10.1 ft 67 cfs
Wed06/26 05:00 pm 10.13 ft 71 cfs
Wed06/26 11:00 pm 10.11 ft 67 cfs
Thu06/27 05:00 am 10.09 ft 64 cfs
Thu06/27 11:00 am 10.09 ft 64 cfs
Thu06/27 05:00 pm 10.12 ft 69 cfs
Thu06/27 11:00 pm 10.09 ft 64 cfs
Fri06/28 05:00 am 10.07 ft 62 cfs
Fri06/28 11:00 am 10.07 ft 61 cfs
Fri06/28 05:00 pm 10.1 ft 66 cfs
Fri06/28 11:00 pm 10.08 ft 62 cfs
Sat06/29 05:00 am 10.08 ft 62 cfs

Snoqualmie River flood gauge data supplied by the
National Weather Service Northwest River Forecast Center.

Sign up for Floodzilla alerts.